sensor_id;sensor_type;location;lat;lon;timestamp;noise_LAeq;noise_LA_min;noise_LA_max;noise_LA01;noise_LA95
43938;Laerm;71382;47.750;10.226;2023-07-31T00:00:38;30.99;30.01;37.63;;
43938;Laerm;71382;47.750;10.226;2023-07-31T00:03:04;31.47;30.09;38.49;;
43938;Laerm;71382;47.750;10.226;2023-07-31T00:05:29;31.92;30.50;36.17;;
43938;Laerm;71382;47.750;10.226;2023-07-31T00:07:55;34.16;30.86;45.24;;
43938;Laerm;71382;47.750;10.226;2023-07-31T00:10:20;32.35;31.25;36.56;;
43938;Laerm;71382;47.750;10.226;2023-07-31T00:12:46;31.98;30.77;37.91;;
43938;Laerm;71382;47.750;10.226;2023-07-31T00:15:13;32.30;30.86;39.80;;
43938;Laerm;71382;47.750;10.226;2023-07-31T00:17:39;32.81;31.01;37.83;;
43938;Laerm;71382;47.750;10.226;2023-07-31T00:20:04;32.69;31.28;37.37;;
43938;Laerm;71382;47.750;10.226;2023-07-31T00:22:30;32.32;31.22;36.72;;
43938;Laerm;71382;47.750;10.226;2023-07-31T00:24:56;34.47;31.16;41.51;;
43938;Laerm;71382;47.750;10.226;2023-07-31T00:27:22;32.79;30.69;38.17;;
43938;Laerm;71382;47.750;10.226;2023-07-31T00:29:49;32.24;30.77;43.20;;
43938;Laerm;71382;47.750;10.226;2023-07-31T00:32:15;32.03;30.74;35.67;;
43938;Laerm;71382;47.750;10.226;2023-07-31T00:34:40;31.75;30.35;37.06;;
43938;Laerm;71382;47.750;10.226;2023-07-31T00:37:06;31.43;30.29;38.77;;
43938;Laerm;71382;47.750;10.226;2023-07-31T00:39:33;32.14;30.57;45.20;;
43938;Laerm;71382;47.750;10.226;2023-07-31T00:41:59;31.63;30.08;41.14;;
43938;Laerm;71382;47.750;10.226;2023-07-31T00:44:24;31.35;30.37;33.50;;
43938;Laerm;71382;47.750;10.226;2023-07-31T00:46:50;31.19;30.15;39.77;;
43938;Laerm;71382;47.750;10.226;2023-07-31T00:49:19;31.06;30.16;33.96;;
43938;Laerm;71382;47.750;10.226;2023-07-31T00:51:45;31.34;30.17;35.74;;
43938;Laerm;71382;47.750;10.226;2023-07-31T00:54:11;31.40;30.38;34.76;;
43938;Laerm;71382;47.750;10.226;2023-07-31T00:56:37;31.20;30.28;35.66;;
43938;Laerm;71382;47.750;10.226;2023-07-31T00:59:03;31.52;30.34;38.23;;
43938;Laerm;71382;47.750;10.226;2023-07-31T01:01:28;31.58;30.19;46.29;;
43938;Laerm;71382;47.750;10.226;2023-07-31T01:03:54;33.26;30.39;48.62;;
43938;Laerm;71382;47.750;10.226;2023-07-31T01:09:06;32.39;30.29;44.97;;
43938;Laerm;71382;47.750;10.226;2023-07-31T01:11:43;31.46;30.20;37.90;;
43938;Laerm;71382;47.750;10.226;2023-07-31T01:14:12;31.16;30.29;33.27;;
43938;Laerm;71382;47.750;10.226;2023-07-31T01:16:37;31.70;30.50;34.71;;
43938;Laerm;71382;47.750;10.226;2023-07-31T01:19:03;32.60;30.38;39.55;;
43938;Laerm;71382;47.750;10.226;2023-07-31T01:26:36;31.58;30.40;41.78;;
43938;Laerm;71382;47.750;10.226;2023-07-31T01:29:08;31.35;30.13;40.57;;
43938;Laerm;71382;47.750;10.226;2023-07-31T01:31:36;31.34;30.09;40.04;;
43938;Laerm;71382;47.750;10.226;2023-07-31T01:34:02;31.17;30.24;32.34;;
43938;Laerm;71382;47.750;10.226;2023-07-31T01:36:28;31.31;30.22;32.83;;
43938;Laerm;71382;47.750;10.226;2023-07-31T01:38:59;31.35;30.06;34.63;;
43938;Laerm;71382;47.750;10.226;2023-07-31T01:41:25;41.04;30.20;57.33;;
43938;Laerm;71382;47.750;10.226;2023-07-31T01:43:51;31.04;30.11;33.05;;
43938;Laerm;71382;47.750;10.226;2023-07-31T01:46:17;37.86;30.13;52.31;;
43938;Laerm;71382;47.750;10.226;2023-07-31T01:48:42;31.16;30.20;34.69;;
43938;Laerm;71382;47.750;10.226;2023-07-31T01:51:08;30.95;30.21;31.97;;
43938;Laerm;71382;47.750;10.226;2023-07-31T01:53:33;31.03;30.05;31.79;;
43938;Laerm;71382;47.750;10.226;2023-07-31T01:55:59;31.06;30.23;31.91;;
43938;Laerm;71382;47.750;10.226;2023-07-31T01:58:25;31.20;30.09;32.45;;
43938;Laerm;71382;47.750;10.226;2023-07-31T02:00:50;32.20;30.29;37.41;;
43938;Laerm;71382;47.750;10.226;2023-07-31T02:03:16;32.22;30.39;37.67;;
43938;Laerm;71382;47.750;10.226;2023-07-31T02:05:45;31.11;30.30;33.86;;
43938;Laerm;71382;47.750;10.226;2023-07-31T02:08:11;31.15;30.30;33.72;;
43938;Laerm;71382;47.750;10.226;2023-07-31T02:10:37;31.03;30.25;32.08;;
43938;Laerm;71382;47.750;10.226;2023-07-31T02:13:03;31.07;30.19;32.19;;
43938;Laerm;71382;47.750;10.226;2023-07-31T02:15:29;31.71;30.23;39.24;;
43938;Laerm;71382;47.750;10.226;2023-07-31T02:17:55;35.74;30.30;47.22;;
43938;Laerm;71382;47.750;10.226;2023-07-31T02:20:20;36.54;30.35;47.79;;
43938;Laerm;71382;47.750;10.226;2023-07-31T02:22:46;31.10;30.21;34.64;;
43938;Laerm;71382;47.750;10.226;2023-07-31T02:25:12;33.41;30.18;44.04;;
43938;Laerm;71382;47.750;10.226;2023-07-31T02:27:37;31.09;30.11;32.00;;
43938;Laerm;71382;47.750;10.226;2023-07-31T02:30:03;34.59;30.17;48.16;;
43938;Laerm;71382;47.750;10.226;2023-07-31T02:32:29;39.40;30.12;57.75;;
43938;Laerm;71382;47.750;10.226;2023-07-31T02:34:54;31.01;30.16;32.21;;
43938;Laerm;71382;47.750;10.226;2023-07-31T02:37:20;33.36;30.21;45.73;;
43938;Laerm;71382;47.750;10.226;2023-07-31T02:39:45;31.12;30.16;33.73;;
43938;Laerm;71382;47.750;10.226;2023-07-31T02:42:11;30.98;30.18;32.18;;
43938;Laerm;71382;47.750;10.226;2023-07-31T02:44:37;33.27;30.29;43.58;;
43938;Laerm;71382;47.750;10.226;2023-07-31T02:47:02;34.17;30.14;47.52;;
43938;Laerm;71382;47.750;10.226;2023-07-31T02:49:28;32.23;30.48;39.43;;
43938;Laerm;71382;47.750;10.226;2023-07-31T02:51:54;32.88;30.17;42.90;;
43938;Laerm;71382;47.750;10.226;2023-07-31T02:54:19;31.03;30.13;32.76;;
43938;Laerm;71382;47.750;10.226;2023-07-31T02:56:47;37.26;30.23;52.63;;
43938;Laerm;71382;47.750;10.226;2023-07-31T02:59:12;33.58;29.97;44.46;;
43938;Laerm;71382;47.750;10.226;2023-07-31T03:01:38;31.06;30.04;33.40;;
43938;Laerm;71382;47.750;10.226;2023-07-31T03:04:04;31.00;30.08;34.82;;
43938;Laerm;71382;47.750;10.226;2023-07-31T03:06:30;31.09;30.19;32.64;;
43938;Laerm;71382;47.750;10.226;2023-07-31T03:08:55;35.01;30.24;47.27;;
43938;Laerm;71382;47.750;10.226;2023-07-31T03:11:21;32.84;30.33;44.62;;
43938;Laerm;71382;47.750;10.226;2023-07-31T03:13:46;35.74;30.38;45.76;;
43938;Laerm;71382;47.750;10.226;2023-07-31T03:16:12;36.32;30.13;47.85;;
43938;Laerm;71382;47.750;10.226;2023-07-31T03:18:37;35.92;30.35;49.30;;
43938;Laerm;71382;47.750;10.226;2023-07-31T03:21:03;37.45;30.00;50.97;;
43938;Laerm;71382;47.750;10.226;2023-07-31T03:23:29;33.64;30.02;45.81;;
43938;Laerm;71382;47.750;10.226;2023-07-31T03:25:59;31.06;30.14;32.11;;
43938;Laerm;71382;47.750;10.226;2023-07-31T03:28:27;38.32;29.97;55.31;;
43938;Laerm;71382;47.750;10.226;2023-07-31T03:30:53;36.39;30.02;47.77;;
43938;Laerm;71382;47.750;10.226;2023-07-31T03:33:19;34.38;30.39;46.39;;
43938;Laerm;71382;47.750;10.226;2023-07-31T03:35:44;38.05;30.56;52.37;;
43938;Laerm;71382;47.750;10.226;2023-07-31T03:38:10;31.77;30.48;41.87;;
43938;Laerm;71382;47.750;10.226;2023-07-31T03:40:36;42.36;30.37;56.11;;
43938;Laerm;71382;47.750;10.226;2023-07-31T03:43:01;37.20;30.28;51.05;;
43938;Laerm;71382;47.750;10.226;2023-07-31T03:45:27;37.38;30.25;50.05;;
43938;Laerm;71382;47.750;10.226;2023-07-31T03:47:53;35.38;30.24;47.50;;
43938;Laerm;71382;47.750;10.226;2023-07-31T03:50:20;35.98;30.33;46.30;;
43938;Laerm;71382;47.750;10.226;2023-07-31T03:52:45;31.77;30.12;38.10;;
43938;Laerm;71382;47.750;10.226;2023-07-31T03:55:11;36.56;30.53;50.47;;
43938;Laerm;71382;47.750;10.226;2023-07-31T03:57:36;40.02;30.19;54.26;;
43938;Laerm;71382;47.750;10.226;2023-07-31T04:00:02;33.55;30.20;44.99;;
43938;Laerm;71382;47.750;10.226;2023-07-31T04:02:37;33.58;30.22;40.51;;
43938;Laerm;71382;47.750;10.226;2023-07-31T04:05:03;35.89;30.17;45.23;;
43938;Laerm;71382;47.750;10.226;2023-07-31T04:07:28;41.00;30.15;55.20;;
43938;Laerm;71382;47.750;10.226;2023-07-31T04:09:55;38.99;30.19;53.22;;
43938;Laerm;71382;47.750;10.226;2023-07-31T04:12:21;44.78;30.82;57.41;;
43938;Laerm;71382;47.750;10.226;2023-07-31T04:14:46;31.51;30.34;34.44;;
43938;Laerm;71382;47.750;10.226;2023-07-31T04:17:12;37.78;30.27;47.92;;
43938;Laerm;71382;47.750;10.226;2023-07-31T04:19:37;43.15;30.40;56.88;;
43938;Laerm;71382;47.750;10.226;2023-07-31T04:22:03;39.24;30.37;50.83;;
43938;Laerm;71382;47.750;10.226;2023-07-31T04:24:28;39.22;30.14;51.91;;
43938;Laerm;71382;47.750;10.226;2023-07-31T04:26:54;38.93;30.58;48.75;;
43938;Laerm;71382;47.750;10.226;2023-07-31T04:29:19;34.81;30.52;47.92;;
43938;Laerm;71382;47.750;10.226;2023-07-31T04:31:45;39.31;30.81;49.95;;
43938;Laerm;71382;47.750;10.226;2023-07-31T04:34:11;36.19;30.26;46.09;;
43938;Laerm;71382;47.750;10.226;2023-07-31T04:36:39;37.36;30.78;51.30;;
43938;Laerm;71382;47.750;10.226;2023-07-31T04:39:05;40.26;30.82;51.28;;
43938;Laerm;71382;47.750;10.226;2023-07-31T04:41:30;44.49;30.88;58.13;;
43938;Laerm;71382;47.750;10.226;2023-07-31T04:43:56;40.10;31.08;51.82;;
43938;Laerm;71382;47.750;10.226;2023-07-31T04:46:21;39.02;31.08;48.62;;
43938;Laerm;71382;47.750;10.226;2023-07-31T04:48:47;42.20;31.41;51.06;;
43938;Laerm;71382;47.750;10.226;2023-07-31T04:51:12;40.48;30.94;55.87;;
43938;Laerm;71382;47.750;10.226;2023-07-31T04:53:38;44.96;30.97;57.70;;
43938;Laerm;71382;47.750;10.226;2023-07-31T04:56:04;41.48;30.75;54.23;;
43938;Laerm;71382;47.750;10.226;2023-07-31T04:58:30;37.44;30.18;46.07;;
43938;Laerm;71382;47.750;10.226;2023-07-31T05:00:55;41.27;30.99;53.04;;
43938;Laerm;71382;47.750;10.226;2023-07-31T05:03:21;39.55;30.48;50.75;;
43938;Laerm;71382;47.750;10.226;2023-07-31T05:05:46;40.81;30.29;52.57;;
43938;Laerm;71382;47.750;10.226;2023-07-31T05:08:12;43.65;30.42;55.47;;
43938;Laerm;71382;47.750;10.226;2023-07-31T05:10:38;44.94;30.85;58.68;;
43938;Laerm;71382;47.750;10.226;2023-07-31T05:13:03;38.93;30.64;49.10;;
43938;Laerm;71382;47.750;10.226;2023-07-31T05:15:29;40.81;30.98;49.85;;
43938;Laerm;71382;47.750;10.226;2023-07-31T05:17:54;38.45;30.41;49.61;;
43938;Laerm;71382;47.750;10.226;2023-07-31T05:20:20;44.26;30.89;58.77;;
43938;Laerm;71382;47.750;10.226;2023-07-31T05:22:46;37.99;31.32;48.98;;
43938;Laerm;71382;47.750;10.226;2023-07-31T05:25:12;42.76;31.53;53.10;;
43938;Laerm;71382;47.750;10.226;2023-07-31T05:27:37;40.04;31.20;51.55;;
43938;Laerm;71382;47.750;10.226;2023-07-31T05:30:03;40.16;31.18;52.55;;
43938;Laerm;71382;47.750;10.226;2023-07-31T05:32:29;42.47;32.33;55.15;;
43938;Laerm;71382;47.750;10.226;2023-07-31T05:34:55;36.14;30.05;49.51;;
43938;Laerm;71382;47.750;10.226;2023-07-31T05:37:20;47.92;31.04;61.36;;
43938;Laerm;71382;47.750;10.226;2023-07-31T05:39:46;43.65;30.77;58.66;;
43938;Laerm;71382;47.750;10.226;2023-07-31T05:42:11;38.83;30.48;49.57;;
43938;Laerm;71382;47.750;10.226;2023-07-31T05:44:37;42.11;31.36;56.99;;
43938;Laerm;71382;47.750;10.226;2023-07-31T05:47:02;41.29;30.73;55.03;;
43938;Laerm;71382;47.750;10.226;2023-07-31T05:49:28;37.97;30.76;48.09;;
43938;Laerm;71382;47.750;10.226;2023-07-31T05:51:54;38.97;30.81;50.84;;
43938;Laerm;71382;47.750;10.226;2023-07-31T05:54:19;42.45;30.83;52.06;;
43938;Laerm;71382;47.750;10.226;2023-07-31T05:56:45;39.64;30.99;53.38;;
43938;Laerm;71382;47.750;10.226;2023-07-31T05:59:11;39.91;31.66;52.87;;
43938;Laerm;71382;47.750;10.226;2023-07-31T06:01:37;41.88;31.37;54.60;;
43938;Laerm;71382;47.750;10.226;2023-07-31T06:04:03;41.29;31.30;51.45;;
43938;Laerm;71382;47.750;10.226;2023-07-31T06:06:29;39.24;30.55;53.00;;
43938;Laerm;71382;47.750;10.226;2023-07-31T06:08:54;39.59;31.45;49.26;;
43938;Laerm;71382;47.750;10.226;2023-07-31T06:11:21;42.59;30.95;51.26;;
43938;Laerm;71382;47.750;10.226;2023-07-31T06:13:46;36.92;30.80;47.51;;
43938;Laerm;71382;47.750;10.226;2023-07-31T06:16:13;37.79;30.30;50.01;;
43938;Laerm;71382;47.750;10.226;2023-07-31T06:18:39;38.83;30.11;49.68;;
43938;Laerm;71382;47.750;10.226;2023-07-31T06:21:05;40.41;30.28;50.94;;
43938;Laerm;71382;47.750;10.226;2023-07-31T06:23:30;41.74;30.24;52.06;;
43938;Laerm;71382;47.750;10.226;2023-07-31T06:25:56;43.38;31.82;56.04;;
43938;Laerm;71382;47.750;10.226;2023-07-31T06:28:26;39.25;30.26;48.63;;
43938;Laerm;71382;47.750;10.226;2023-07-31T06:30:52;41.64;31.41;54.55;;
43938;Laerm;71382;47.750;10.226;2023-07-31T06:33:18;44.68;34.20;59.76;;
43938;Laerm;71382;47.750;10.226;2023-07-31T06:35:43;41.39;32.72;63.95;;
43938;Laerm;71382;47.750;10.226;2023-07-31T06:38:09;44.12;31.64;53.99;;
43938;Laerm;71382;47.750;10.226;2023-07-31T06:40:34;42.15;30.50;50.31;;
43938;Laerm;71382;47.750;10.226;2023-07-31T06:43:00;39.05;31.18;50.27;;
43938;Laerm;71382;47.750;10.226;2023-07-31T06:45:31;41.86;30.48;52.03;;
43938;Laerm;71382;47.750;10.226;2023-07-31T06:47:57;42.15;31.11;53.97;;
43938;Laerm;71382;47.750;10.226;2023-07-31T06:50:27;40.26;30.35;50.04;;
43938;Laerm;71382;47.750;10.226;2023-07-31T06:52:52;47.53;30.70;63.43;;
43938;Laerm;71382;47.750;10.226;2023-07-31T06:55:19;40.59;30.42;54.18;;
43938;Laerm;71382;47.750;10.226;2023-07-31T06:57:48;36.69;30.32;47.89;;
43938;Laerm;71382;47.750;10.226;2023-07-31T07:00:14;41.51;30.66;56.73;;
43938;Laerm;71382;47.750;10.226;2023-07-31T07:02:39;44.53;30.58;58.31;;
43938;Laerm;71382;47.750;10.226;2023-07-31T07:05:06;36.50;30.53;49.27;;
43938;Laerm;71382;47.750;10.226;2023-07-31T07:07:32;36.34;30.93;49.64;;
43938;Laerm;71382;47.750;10.226;2023-07-31T07:09:57;47.73;32.39;59.31;;
43938;Laerm;71382;47.750;10.226;2023-07-31T07:12:25;41.52;30.68;49.78;;
43938;Laerm;71382;47.750;10.226;2023-07-31T07:14:50;37.28;30.32;48.84;;
43938;Laerm;71382;47.750;10.226;2023-07-31T07:17:18;39.41;30.56;49.99;;
43938;Laerm;71382;47.750;10.226;2023-07-31T07:19:44;45.56;32.94;59.23;;
43938;Laerm;71382;47.750;10.226;2023-07-31T07:22:11;45.16;32.23;58.45;;
43938;Laerm;71382;47.750;10.226;2023-07-31T07:24:36;41.64;33.51;54.02;;
43938;Laerm;71382;47.750;10.226;2023-07-31T07:27:02;41.43;32.31;50.27;;
43938;Laerm;71382;47.750;10.226;2023-07-31T07:29:28;45.40;33.77;60.72;;
43938;Laerm;71382;47.750;10.226;2023-07-31T07:31:53;43.54;33.88;58.13;;
43938;Laerm;71382;47.750;10.226;2023-07-31T07:34:19;44.65;33.65;60.79;;
43938;Laerm;71382;47.750;10.226;2023-07-31T07:36:44;43.63;37.37;61.11;;
43938;Laerm;71382;47.750;10.226;2023-07-31T07:39:10;42.41;36.20;56.66;;
43938;Laerm;71382;47.750;10.226;2023-07-31T07:41:36;42.72;36.22;54.44;;
43938;Laerm;71382;47.750;10.226;2023-07-31T07:44:02;41.66;35.43;49.07;;
43938;Laerm;71382;47.750;10.226;2023-07-31T07:46:27;44.76;34.94;60.45;;
43938;Laerm;71382;47.750;10.226;2023-07-31T07:48:53;42.45;34.49;55.37;;
43938;Laerm;71382;47.750;10.226;2023-07-31T07:51:18;42.31;35.78;57.21;;
43938;Laerm;71382;47.750;10.226;2023-07-31T07:53:44;44.57;33.13;55.83;;
43938;Laerm;71382;47.750;10.226;2023-07-31T07:56:10;47.15;34.45;56.88;;
43938;Laerm;71382;47.750;10.226;2023-07-31T07:58:35;42.03;33.32;50.65;;
43938;Laerm;71382;47.750;10.226;2023-07-31T08:01:01;41.16;33.00;49.79;;
43938;Laerm;71382;47.750;10.226;2023-07-31T08:03:26;43.11;33.52;50.91;;
43938;Laerm;71382;47.750;10.226;2023-07-31T08:05:52;42.60;33.01;54.41;;
43938;Laerm;71382;47.750;10.226;2023-07-31T08:08:18;42.88;32.20;58.56;;
43938;Laerm;71382;47.750;10.226;2023-07-31T08:10:44;43.57;32.08;55.76;;
43938;Laerm;71382;47.750;10.226;2023-07-31T08:13:11;39.90;31.38;49.80;;
43938;Laerm;71382;47.750;10.226;2023-07-31T08:15:37;45.31;31.14;60.84;;
43938;Laerm;71382;47.750;10.226;2023-07-31T08:18:02;40.71;31.21;51.37;;
43938;Laerm;71382;47.750;10.226;2023-07-31T08:20:28;45.42;31.29;60.40;;
43938;Laerm;71382;47.750;10.226;2023-07-31T08:22:53;42.65;31.76;53.85;;
43938;Laerm;71382;47.750;10.226;2023-07-31T08:25:19;41.87;31.46;54.69;;
43938;Laerm;71382;47.750;10.226;2023-07-31T08:27:44;42.40;32.17;57.86;;
43938;Laerm;71382;47.750;10.226;2023-07-31T08:30:11;39.81;31.63;53.56;;
43938;Laerm;71382;47.750;10.226;2023-07-31T08:32:37;41.09;31.06;52.06;;
43938;Laerm;71382;47.750;10.226;2023-07-31T08:35:03;45.12;33.28;54.86;;
43938;Laerm;71382;47.750;10.226;2023-07-31T08:37:28;38.31;31.33;46.89;;
43938;Laerm;71382;47.750;10.226;2023-07-31T08:39:54;47.90;36.77;59.09;;
43938;Laerm;71382;47.750;10.226;2023-07-31T08:42:20;36.84;31.01;48.47;;
43938;Laerm;71382;47.750;10.226;2023-07-31T08:44:46;36.82;30.77;47.52;;
43938;Laerm;71382;47.750;10.226;2023-07-31T08:47:12;52.92;32.53;66.86;;
43938;Laerm;71382;47.750;10.226;2023-07-31T08:49:38;43.28;32.23;53.31;;
43938;Laerm;71382;47.750;10.226;2023-07-31T08:52:05;45.71;32.22;60.42;;
43938;Laerm;71382;47.750;10.226;2023-07-31T08:54:31;42.11;33.77;49.39;;
43938;Laerm;71382;47.750;10.226;2023-07-31T08:56:58;38.62;31.34;51.29;;
43938;Laerm;71382;47.750;10.226;2023-07-31T08:59:26;42.82;31.99;54.20;;
43938;Laerm;71382;47.750;10.226;2023-07-31T09:01:53;43.39;32.04;56.24;;
43938;Laerm;71382;47.750;10.226;2023-07-31T09:04:20;41.71;31.48;52.97;;
43938;Laerm;71382;47.750;10.226;2023-07-31T09:06:48;44.32;31.49;56.41;;
43938;Laerm;71382;47.750;10.226;2023-07-31T09:09:13;44.74;31.39;62.48;;
43938;Laerm;71382;47.750;10.226;2023-07-31T09:11:40;39.86;31.35;59.30;;
43938;Laerm;71382;47.750;10.226;2023-07-31T09:14:07;47.02;33.39;67.70;;
43938;Laerm;71382;47.750;10.226;2023-07-31T09:16:34;44.26;33.29;57.79;;
43938;Laerm;71382;47.750;10.226;2023-07-31T09:19:00;47.45;33.90;60.38;;
43938;Laerm;71382;47.750;10.226;2023-07-31T09:21:27;42.99;32.97;51.82;;
43938;Laerm;71382;47.750;10.226;2023-07-31T09:23:53;39.17;31.77;51.71;;
43938;Laerm;71382;47.750;10.226;2023-07-31T09:28:57;46.59;33.17;68.47;;
43938;Laerm;71382;47.750;10.226;2023-07-31T09:34:17;45.09;32.50;64.41;;
43938;Laerm;71382;47.750;10.226;2023-07-31T09:36:46;44.47;32.73;59.22;;
43938;Laerm;71382;47.750;10.226;2023-07-31T09:39:13;46.06;32.97;62.34;;
43938;Laerm;71382;47.750;10.226;2023-07-31T09:41:39;46.48;33.07;59.84;;
43938;Laerm;71382;47.750;10.226;2023-07-31T09:44:05;43.38;32.42;63.15;;
43938;Laerm;71382;47.750;10.226;2023-07-31T09:46:31;45.16;31.39;62.31;;
43938;Laerm;71382;47.750;10.226;2023-07-31T09:51:48;41.74;32.22;53.78;;
43938;Laerm;71382;47.750;10.226;2023-07-31T09:54:15;42.57;33.05;60.37;;
43938;Laerm;71382;47.750;10.226;2023-07-31T09:56:44;46.32;32.94;60.62;;
43938;Laerm;71382;47.750;10.226;2023-07-31T09:59:11;40.85;32.40;54.74;;
43938;Laerm;71382;47.750;10.226;2023-07-31T10:01:36;46.10;31.98;59.81;;
43938;Laerm;71382;47.750;10.226;2023-07-31T10:04:02;49.33;33.50;66.47;;
43938;Laerm;71382;47.750;10.226;2023-07-31T10:06:30;44.27;32.03;60.58;;
43938;Laerm;71382;47.750;10.226;2023-07-31T10:08:56;48.08;32.47;62.18;;
43938;Laerm;71382;47.750;10.226;2023-07-31T10:11:22;42.54;32.48;57.66;;
43938;Laerm;71382;47.750;10.226;2023-07-31T10:13:50;45.98;32.39;64.61;;
43938;Laerm;71382;47.750;10.226;2023-07-31T10:16:16;43.40;33.50;55.03;;
43938;Laerm;71382;47.750;10.226;2023-07-31T10:18:42;43.67;33.07;55.02;;
43938;Laerm;71382;47.750;10.226;2023-07-31T10:21:07;45.14;32.32;65.02;;
43938;Laerm;71382;47.750;10.226;2023-07-31T10:23:33;42.56;32.21;61.09;;
43938;Laerm;71382;47.750;10.226;2023-07-31T10:25:59;41.50;31.87;52.54;;
43938;Laerm;71382;47.750;10.226;2023-07-31T10:28:26;42.02;31.65;62.36;;
43938;Laerm;71382;47.750;10.226;2023-07-31T10:30:52;44.54;31.77;58.38;;
43938;Laerm;71382;47.750;10.226;2023-07-31T10:33:18;39.58;31.38;50.36;;
43938;Laerm;71382;47.750;10.226;2023-07-31T10:35:46;43.18;31.48;54.98;;
43938;Laerm;71382;47.750;10.226;2023-07-31T10:38:12;39.67;32.07;54.07;;
43938;Laerm;71382;47.750;10.226;2023-07-31T10:40:38;43.86;33.31;58.69;;
43938;Laerm;71382;47.750;10.226;2023-07-31T10:43:04;46.65;33.59;61.11;;
43938;Laerm;71382;47.750;10.226;2023-07-31T10:45:41;46.63;33.49;67.07;;
43938;Laerm;71382;47.750;10.226;2023-07-31T10:48:14;48.20;34.01;66.42;;
43938;Laerm;71382;47.750;10.226;2023-07-31T10:53:24;42.57;33.75;57.74;;
43938;Laerm;71382;47.750;10.226;2023-07-31T10:55:50;41.52;34.12;54.25;;
43938;Laerm;71382;47.750;10.226;2023-07-31T10:58:19;47.75;33.39;61.79;;
43938;Laerm;71382;47.750;10.226;2023-07-31T11:00:45;43.05;33.99;51.54;;
43938;Laerm;71382;47.750;10.226;2023-07-31T11:03:13;44.73;33.28;59.98;;
43938;Laerm;71382;47.750;10.226;2023-07-31T11:08:11;44.66;32.31;54.81;;
43938;Laerm;71382;47.750;10.226;2023-07-31T11:10:37;42.94;32.71;52.84;;
43938;Laerm;71382;47.750;10.226;2023-07-31T11:13:04;43.81;32.26;61.50;;
43938;Laerm;71382;47.750;10.226;2023-07-31T11:15:29;48.40;33.37;68.36;;
43938;Laerm;71382;47.750;10.226;2023-07-31T11:17:55;46.45;33.14;62.98;;
43938;Laerm;71382;47.750;10.226;2023-07-31T11:20:26;42.98;31.38;56.72;;
43938;Laerm;71382;47.750;10.226;2023-07-31T11:22:52;41.70;31.45;53.92;;
43938;Laerm;71382;47.750;10.226;2023-07-31T11:25:17;48.53;32.15;69.10;;
43938;Laerm;71382;47.750;10.226;2023-07-31T11:27:43;48.07;33.91;67.67;;
43938;Laerm;71382;47.750;10.226;2023-07-31T11:30:09;49.00;33.13;68.07;;
43938;Laerm;71382;47.750;10.226;2023-07-31T11:32:38;46.85;33.94;67.53;;
43938;Laerm;71382;47.750;10.226;2023-07-31T11:35:04;41.12;32.03;59.71;;
43938;Laerm;71382;47.750;10.226;2023-07-31T11:40:06;41.28;32.49;62.50;;
43938;Laerm;71382;47.750;10.226;2023-07-31T11:42:32;43.33;32.30;58.69;;
43938;Laerm;71382;47.750;10.226;2023-07-31T11:44:57;43.31;32.79;61.14;;
43938;Laerm;71382;47.750;10.226;2023-07-31T11:47:23;44.58;32.75;60.95;;
43938;Laerm;71382;47.750;10.226;2023-07-31T11:49:51;44.91;32.18;58.82;;
43938;Laerm;71382;47.750;10.226;2023-07-31T11:52:17;48.59;33.16;63.63;;
43938;Laerm;71382;47.750;10.226;2023-07-31T11:54:44;44.83;33.66;62.22;;
43938;Laerm;71382;47.750;10.226;2023-07-31T11:57:10;50.76;34.98;68.85;;
43938;Laerm;71382;47.750;10.226;2023-07-31T11:59:37;45.55;33.14;64.15;;
43938;Laerm;71382;47.750;10.226;2023-07-31T12:02:03;52.31;32.94;73.19;;
43938;Laerm;71382;47.750;10.226;2023-07-31T12:04:29;37.63;31.78;52.13;;
43938;Laerm;71382;47.750;10.226;2023-07-31T12:06:55;41.96;31.76;54.01;;
43938;Laerm;71382;47.750;10.226;2023-07-31T12:09:20;43.79;32.54;61.33;;
43938;Laerm;71382;47.750;10.226;2023-07-31T12:11:46;44.00;32.95;60.92;;
43938;Laerm;71382;47.750;10.226;2023-07-31T12:14:25;42.63;32.58;58.47;;
43938;Laerm;71382;47.750;10.226;2023-07-31T12:16:54;46.13;33.86;57.58;;
43938;Laerm;71382;47.750;10.226;2023-07-31T12:19:21;38.58;31.79;48.67;;
43938;Laerm;71382;47.750;10.226;2023-07-31T12:21:47;39.13;33.79;49.05;;
43938;Laerm;71382;47.750;10.226;2023-07-31T12:24:12;42.60;33.84;59.28;;
43938;Laerm;71382;47.750;10.226;2023-07-31T12:26:38;44.82;34.24;64.78;;
43938;Laerm;71382;47.750;10.226;2023-07-31T12:29:05;38.69;33.32;49.97;;
43938;Laerm;71382;47.750;10.226;2023-07-31T12:31:33;39.86;33.10;50.12;;
43938;Laerm;71382;47.750;10.226;2023-07-31T12:33:59;42.00;33.21;54.18;;
43938;Laerm;71382;47.750;10.226;2023-07-31T12:36:25;46.64;32.78;61.87;;
43938;Laerm;71382;47.750;10.226;2023-07-31T12:38:50;40.40;31.40;50.65;;
43938;Laerm;71382;47.750;10.226;2023-07-31T12:41:16;38.63;31.42;53.29;;
43938;Laerm;71382;47.750;10.226;2023-07-31T12:43:43;39.73;32.31;55.62;;
43938;Laerm;71382;47.750;10.226;2023-07-31T12:46:09;48.60;33.30;63.44;;
43938;Laerm;71382;47.750;10.226;2023-07-31T12:48:36;41.54;31.87;53.71;;
43938;Laerm;71382;47.750;10.226;2023-07-31T12:51:02;44.38;32.32;60.53;;
43938;Laerm;71382;47.750;10.226;2023-07-31T12:53:28;43.18;31.79;56.26;;
43938;Laerm;71382;47.750;10.226;2023-07-31T12:55:54;43.08;31.85;58.94;;
43938;Laerm;71382;47.750;10.226;2023-07-31T12:58:19;39.47;33.15;50.33;;
43938;Laerm;71382;47.750;10.226;2023-07-31T13:00:45;42.78;32.59;57.71;;
43938;Laerm;71382;47.750;10.226;2023-07-31T13:03:10;47.45;32.49;61.29;;
43938;Laerm;71382;47.750;10.226;2023-07-31T13:05:36;42.56;32.53;57.44;;
43938;Laerm;71382;47.750;10.226;2023-07-31T13:08:01;40.65;31.32;54.33;;
43938;Laerm;71382;47.750;10.226;2023-07-31T13:10:27;37.79;31.05;49.94;;
43938;Laerm;71382;47.750;10.226;2023-07-31T13:12:54;46.75;31.33;60.48;;
43938;Laerm;71382;47.750;10.226;2023-07-31T13:15:19;36.76;30.90;48.31;;
43938;Laerm;71382;47.750;10.226;2023-07-31T13:17:45;49.65;31.80;64.81;;
43938;Laerm;71382;47.750;10.226;2023-07-31T13:20:11;42.02;32.21;54.89;;
43938;Laerm;71382;47.750;10.226;2023-07-31T13:22:36;42.01;32.93;55.17;;
43938;Laerm;71382;47.750;10.226;2023-07-31T13:25:02;42.83;32.89;57.15;;
43938;Laerm;71382;47.750;10.226;2023-07-31T13:27:29;45.63;32.29;60.75;;
43938;Laerm;71382;47.750;10.226;2023-07-31T13:29:55;47.76;31.90;60.80;;
43938;Laerm;71382;47.750;10.226;2023-07-31T13:32:20;41.70;31.69;56.99;;
43938;Laerm;71382;47.750;10.226;2023-07-31T13:34:46;38.95;31.38;61.88;;
43938;Laerm;71382;47.750;10.226;2023-07-31T13:37:12;42.07;31.88;55.11;;
43938;Laerm;71382;47.750;10.226;2023-07-31T13:39:38;44.26;32.38;59.55;;
43938;Laerm;71382;47.750;10.226;2023-07-31T13:42:04;52.97;35.90;65.56;;
43938;Laerm;71382;47.750;10.226;2023-07-31T13:44:36;50.28;38.73;57.02;;
43938;Laerm;71382;47.750;10.226;2023-07-31T13:47:02;47.71;32.28;56.28;;
43938;Laerm;71382;47.750;10.226;2023-07-31T13:49:28;43.59;34.63;55.11;;